sensor_id;sensor_type;location;lat;lon;timestamp;P1;durP1;ratioP1;P2;durP2;ratioP2
79047;SDS011;68680;50.764;6.120;2024-03-06T00:01:33;9.15;;;6.07;;
79047;SDS011;68680;50.764;6.120;2024-03-06T00:03:58;9.43;;;5.68;;
79047;SDS011;68680;50.764;6.120;2024-03-06T00:06:26;10.63;;;5.65;;
79047;SDS011;68680;50.764;6.120;2024-03-06T00:08:51;7.80;;;5.15;;
79047;SDS011;68680;50.764;6.120;2024-03-06T00:11:17;5.85;;;4.25;;
79047;SDS011;68680;50.764;6.120;2024-03-06T00:13:43;5.38;;;3.15;;
79047;SDS011;68680;50.764;6.120;2024-03-06T00:16:09;4.68;;;3.22;;
79047;SDS011;68680;50.764;6.120;2024-03-06T00:18:34;3.75;;;3.10;;
79047;SDS011;68680;50.764;6.120;2024-03-06T00:21:00;4.57;;;3.40;;
79047;SDS011;68680;50.764;6.120;2024-03-06T00:23:27;4.70;;;3.13;;
79047;SDS011;68680;50.764;6.120;2024-03-06T00:25:53;7.80;;;3.30;;
79047;SDS011;68680;50.764;6.120;2024-03-06T00:28:19;6.20;;;3.10;;
79047;SDS011;68680;50.764;6.120;2024-03-06T00:30:44;5.90;;;2.63;;
79047;SDS011;68680;50.764;6.120;2024-03-06T00:33:10;4.47;;;2.50;;
79047;SDS011;68680;50.764;6.120;2024-03-06T00:35:36;4.55;;;2.50;;
79047;SDS011;68680;50.764;6.120;2024-03-06T00:38:02;3.58;;;2.22;;
79047;SDS011;68680;50.764;6.120;2024-03-06T00:40:29;4.50;;;2.17;;
79047;SDS011;68680;50.764;6.120;2024-03-06T00:42:55;7.22;;;2.50;;
79047;SDS011;68680;50.764;6.120;2024-03-06T00:45:20;4.53;;;2.35;;
79047;SDS011;68680;50.764;6.120;2024-03-06T00:47:46;6.43;;;2.20;;
79047;SDS011;68680;50.764;6.120;2024-03-06T00:50:12;3.13;;;2.05;;
79047;SDS011;68680;50.764;6.120;2024-03-06T00:52:38;3.28;;;1.80;;
79047;SDS011;68680;50.764;6.120;2024-03-06T00:55:05;2.13;;;1.90;;
79047;SDS011;68680;50.764;6.120;2024-03-06T00:57:33;3.63;;;1.90;;
79047;SDS011;68680;50.764;6.120;2024-03-06T00:59:59;2.28;;;2.05;;
79047;SDS011;68680;50.764;6.120;2024-03-06T01:02:25;4.05;;;2.03;;
79047;SDS011;68680;50.764;6.120;2024-03-06T01:04:51;3.03;;;2.15;;
79047;SDS011;68680;50.764;6.120;2024-03-06T01:07:16;3.05;;;1.92;;
79047;SDS011;68680;50.764;6.120;2024-03-06T01:09:42;3.35;;;2.03;;
79047;SDS011;68680;50.764;6.120;2024-03-06T01:12:08;6.95;;;2.20;;
79047;SDS011;68680;50.764;6.120;2024-03-06T01:14:35;5.65;;;2.58;;
79047;SDS011;68680;50.764;6.120;2024-03-06T01:17:01;5.50;;;2.15;;
79047;SDS011;68680;50.764;6.120;2024-03-06T01:19:26;3.13;;;2.00;;
79047;SDS011;68680;50.764;6.120;2024-03-06T01:21:52;3.53;;;1.83;;
79047;SDS011;68680;50.764;6.120;2024-03-06T01:24:18;2.55;;;2.28;;
79047;SDS011;68680;50.764;6.120;2024-03-06T01:26:44;2.70;;;2.50;;
79047;SDS011;68680;50.764;6.120;2024-03-06T01:29:09;3.83;;;2.10;;
79047;SDS011;68680;50.764;6.120;2024-03-06T01:31:36;3.65;;;2.60;;
79047;SDS011;68680;50.764;6.120;2024-03-06T01:34:02;3.97;;;2.60;;
79047;SDS011;68680;50.764;6.120;2024-03-06T01:36:28;2.75;;;2.47;;
79047;SDS011;68680;50.764;6.120;2024-03-06T01:38:54;4.47;;;2.80;;
79047;SDS011;68680;50.764;6.120;2024-03-06T01:41:19;5.65;;;2.70;;
79047;SDS011;68680;50.764;6.120;2024-03-06T01:43:45;4.07;;;2.90;;
79047;SDS011;68680;50.764;6.120;2024-03-06T01:46:11;5.20;;;3.15;;
79047;SDS011;68680;50.764;6.120;2024-03-06T01:48:38;6.60;;;2.97;;
79047;SDS011;68680;50.764;6.120;2024-03-06T01:51:05;5.30;;;3.08;;
79047;SDS011;68680;50.764;6.120;2024-03-06T01:53:31;3.33;;;2.67;;
79047;SDS011;68680;50.764;6.120;2024-03-06T01:55:59;5.43;;;3.22;;
79047;SDS011;68680;50.764;6.120;2024-03-06T01:58:26;6.13;;;2.78;;
79047;SDS011;68680;50.764;6.120;2024-03-06T02:00:53;8.70;;;3.70;;
79047;SDS011;68680;50.764;6.120;2024-03-06T02:03:19;5.93;;;2.67;;
79047;SDS011;68680;50.764;6.120;2024-03-06T02:05:46;3.75;;;3.15;;
79047;SDS011;68680;50.764;6.120;2024-03-06T02:08:13;4.40;;;3.00;;
79047;SDS011;68680;50.764;6.120;2024-03-06T02:10:39;6.47;;;3.28;;
79047;SDS011;68680;50.764;6.120;2024-03-06T02:13:05;4.63;;;2.80;;
79047;SDS011;68680;50.764;6.120;2024-03-06T02:15:30;6.18;;;2.90;;
79047;SDS011;68680;50.764;6.120;2024-03-06T02:17:56;8.30;;;2.70;;
79047;SDS011;68680;50.764;6.120;2024-03-06T02:20:24;2.67;;;2.45;;
79047;SDS011;68680;50.764;6.120;2024-03-06T02:22:50;6.90;;;2.90;;
79047;SDS011;68680;50.764;6.120;2024-03-06T02:25:16;3.55;;;2.90;;
79047;SDS011;68680;50.764;6.120;2024-03-06T02:27:43;4.43;;;2.85;;
79047;SDS011;68680;50.764;6.120;2024-03-06T02:30:09;5.97;;;2.90;;
79047;SDS011;68680;50.764;6.120;2024-03-06T02:32:36;6.55;;;2.58;;
79047;SDS011;68680;50.764;6.120;2024-03-06T02:35:01;3.90;;;2.63;;
79047;SDS011;68680;50.764;6.120;2024-03-06T02:37:29;6.90;;;2.17;;
79047;SDS011;68680;50.764;6.120;2024-03-06T02:39:55;3.70;;;2.72;;
79047;SDS011;68680;50.764;6.120;2024-03-06T02:42:21;3.95;;;1.85;;
79047;SDS011;68680;50.764;6.120;2024-03-06T02:44:46;4.95;;;2.40;;
79047;SDS011;68680;50.764;6.120;2024-03-06T02:47:12;4.97;;;2.28;;
79047;SDS011;68680;50.764;6.120;2024-03-06T02:49:38;4.07;;;2.58;;
79047;SDS011;68680;50.764;6.120;2024-03-06T02:52:04;6.72;;;2.22;;
79047;SDS011;68680;50.764;6.120;2024-03-06T02:54:31;5.60;;;2.50;;
79047;SDS011;68680;50.764;6.120;2024-03-06T02:56:57;5.57;;;2.67;;
79047;SDS011;68680;50.764;6.120;2024-03-06T02:59:22;9.63;;;2.50;;
79047;SDS011;68680;50.764;6.120;2024-03-06T03:01:48;5.75;;;2.15;;
79047;SDS011;68680;50.764;6.120;2024-03-06T03:04:14;6.30;;;2.25;;
79047;SDS011;68680;50.764;6.120;2024-03-06T03:06:40;5.00;;;2.38;;
79047;SDS011;68680;50.764;6.120;2024-03-06T03:09:05;5.30;;;2.08;;
79047;SDS011;68680;50.764;6.120;2024-03-06T03:11:32;4.03;;;2.50;;
79047;SDS011;68680;50.764;6.120;2024-03-06T03:13:58;6.90;;;2.08;;
79047;SDS011;68680;50.764;6.120;2024-03-06T03:16:24;5.32;;;2.05;;
79047;SDS011;68680;50.764;6.120;2024-03-06T03:18:50;4.07;;;2.85;;
79047;SDS011;68680;50.764;6.120;2024-03-06T03:21:15;4.75;;;2.65;;
79047;SDS011;68680;50.764;6.120;2024-03-06T03:23:41;7.13;;;2.70;;
79047;SDS011;68680;50.764;6.120;2024-03-06T03:26:07;3.83;;;2.30;;
79047;SDS011;68680;50.764;6.120;2024-03-06T03:28:35;3.30;;;2.50;;
79047;SDS011;68680;50.764;6.120;2024-03-06T03:31:03;6.03;;;2.65;;
79047;SDS011;68680;50.764;6.120;2024-03-06T03:33:29;3.58;;;2.33;;
79047;SDS011;68680;50.764;6.120;2024-03-06T03:35:54;6.63;;;2.70;;
79047;SDS011;68680;50.764;6.120;2024-03-06T03:38:20;4.65;;;2.50;;
79047;SDS011;68680;50.764;6.120;2024-03-06T03:40:46;3.38;;;2.60;;
79047;SDS011;68680;50.764;6.120;2024-03-06T03:43:12;3.63;;;2.63;;
79047;SDS011;68680;50.764;6.120;2024-03-06T03:45:39;4.47;;;3.10;;
79047;SDS011;68680;50.764;6.120;2024-03-06T03:48:05;4.30;;;2.85;;
79047;SDS011;68680;50.764;6.120;2024-03-06T03:50:31;6.10;;;2.97;;
79047;SDS011;68680;50.764;6.120;2024-03-06T03:52:57;7.50;;;3.50;;
79047;SDS011;68680;50.764;6.120;2024-03-06T03:55:23;4.40;;;2.58;;
79047;SDS011;68680;50.764;6.120;2024-03-06T03:57:49;5.57;;;3.05;;
79047;SDS011;68680;50.764;6.120;2024-03-06T04:00:15;3.25;;;2.70;;
79047;SDS011;68680;50.764;6.120;2024-03-06T04:02:43;5.30;;;3.00;;
79047;SDS011;68680;50.764;6.120;2024-03-06T04:05:09;3.08;;;2.70;;
79047;SDS011;68680;50.764;6.120;2024-03-06T04:07:35;5.78;;;3.15;;
79047;SDS011;68680;50.764;6.120;2024-03-06T04:10:01;6.45;;;3.65;;
79047;SDS011;68680;50.764;6.120;2024-03-06T04:12:26;5.85;;;3.15;;
79047;SDS011;68680;50.764;6.120;2024-03-06T04:14:52;6.00;;;3.58;;
79047;SDS011;68680;50.764;6.120;2024-03-06T04:17:18;7.07;;;3.40;;
79047;SDS011;68680;50.764;6.120;2024-03-06T04:19:45;11.82;;;3.80;;
79047;SDS011;68680;50.764;6.120;2024-03-06T04:22:11;6.35;;;3.90;;
79047;SDS011;68680;50.764;6.120;2024-03-06T04:24:40;7.30;;;3.60;;
79047;SDS011;68680;50.764;6.120;2024-03-06T04:27:06;5.90;;;3.75;;
79047;SDS011;68680;50.764;6.120;2024-03-06T04:29:32;4.00;;;3.53;;
79047;SDS011;68680;50.764;6.120;2024-03-06T04:31:58;4.97;;;4.00;;
79047;SDS011;68680;50.764;6.120;2024-03-06T04:34:23;9.00;;;4.00;;
79047;SDS011;68680;50.764;6.120;2024-03-06T04:36:50;8.02;;;4.68;;
79047;SDS011;68680;50.764;6.120;2024-03-06T04:39:16;12.57;;;4.05;;
79047;SDS011;68680;50.764;6.120;2024-03-06T04:41:42;5.80;;;3.72;;
79047;SDS011;68680;50.764;6.120;2024-03-06T04:44:08;9.75;;;4.10;;
79047;SDS011;68680;50.764;6.120;2024-03-06T04:46:33;5.72;;;4.13;;
79047;SDS011;68680;50.764;6.120;2024-03-06T04:48:59;9.07;;;4.68;;
79047;SDS011;68680;50.764;6.120;2024-03-06T04:51:25;7.10;;;4.22;;
79047;SDS011;68680;50.764;6.120;2024-03-06T04:53:52;5.53;;;3.47;;
79047;SDS011;68680;50.764;6.120;2024-03-06T04:56:18;4.78;;;3.80;;
79047;SDS011;68680;50.764;6.120;2024-03-06T04:58:44;6.18;;;3.78;;
79047;SDS011;68680;50.764;6.120;2024-03-06T05:01:09;7.85;;;4.50;;
79047;SDS011;68680;50.764;6.120;2024-03-06T05:03:36;7.97;;;4.30;;
79047;SDS011;68680;50.764;6.120;2024-03-06T05:06:02;5.65;;;3.83;;
79047;SDS011;68680;50.764;6.120;2024-03-06T05:08:28;9.80;;;4.63;;
79047;SDS011;68680;50.764;6.120;2024-03-06T05:10:55;8.07;;;4.35;;
79047;SDS011;68680;50.764;6.120;2024-03-06T05:13:21;9.80;;;4.32;;
79047;SDS011;68680;50.764;6.120;2024-03-06T05:15:46;7.63;;;5.13;;
79047;SDS011;68680;50.764;6.120;2024-03-06T05:18:12;9.15;;;5.15;;
79047;SDS011;68680;50.764;6.120;2024-03-06T05:20:38;7.90;;;5.63;;
79047;SDS011;68680;50.764;6.120;2024-03-06T05:23:04;8.95;;;5.30;;
79047;SDS011;68680;50.764;6.120;2024-03-06T05:25:30;9.75;;;4.80;;
79047;SDS011;68680;50.764;6.120;2024-03-06T05:27:57;10.07;;;5.28;;
79047;SDS011;68680;50.764;6.120;2024-03-06T05:30:22;7.93;;;5.68;;
79047;SDS011;68680;50.764;6.120;2024-03-06T05:32:48;9.40;;;5.88;;
79047;SDS011;68680;50.764;6.120;2024-03-06T05:35:14;13.38;;;6.45;;
79047;SDS011;68680;50.764;6.120;2024-03-06T05:37:41;12.05;;;6.18;;
79047;SDS011;68680;50.764;6.120;2024-03-06T05:40:08;8.70;;;5.57;;
79047;SDS011;68680;50.764;6.120;2024-03-06T05:42:36;11.98;;;6.00;;
79047;SDS011;68680;50.764;6.120;2024-03-06T05:45:03;10.82;;;5.95;;
79047;SDS011;68680;50.764;6.120;2024-03-06T05:47:30;9.30;;;5.20;;
79047;SDS011;68680;50.764;6.120;2024-03-06T05:49:56;10.98;;;6.25;;
79047;SDS011;68680;50.764;6.120;2024-03-06T05:52:22;16.25;;;6.40;;
79047;SDS011;68680;50.764;6.120;2024-03-06T05:54:48;9.05;;;5.88;;
79047;SDS011;68680;50.764;6.120;2024-03-06T05:57:14;10.27;;;6.00;;
79047;SDS011;68680;50.764;6.120;2024-03-06T05:59:39;10.68;;;5.22;;
79047;SDS011;68680;50.764;6.120;2024-03-06T06:02:07;12.00;;;5.78;;
79047;SDS011;68680;50.764;6.120;2024-03-06T06:04:32;12.57;;;6.47;;
79047;SDS011;68680;50.764;6.120;2024-03-06T06:06:58;11.85;;;6.60;;
79047;SDS011;68680;50.764;6.120;2024-03-06T06:09:24;14.85;;;8.30;;
79047;SDS011;68680;50.764;6.120;2024-03-06T06:11:50;12.80;;;6.20;;
79047;SDS011;68680;50.764;6.120;2024-03-06T06:14:15;12.63;;;6.65;;
79047;SDS011;68680;50.764;6.120;2024-03-06T06:16:41;15.15;;;6.25;;
79047;SDS011;68680;50.764;6.120;2024-03-06T06:19:09;15.43;;;7.28;;
79047;SDS011;68680;50.764;6.120;2024-03-06T06:21:35;19.00;;;7.20;;
79047;SDS011;68680;50.764;6.120;2024-03-06T06:24:01;13.43;;;6.18;;
79047;SDS011;68680;50.764;6.120;2024-03-06T06:26:26;11.43;;;6.88;;
79047;SDS011;68680;50.764;6.120;2024-03-06T06:28:52;16.65;;;7.45;;
79047;SDS011;68680;50.764;6.120;2024-03-06T06:31:18;18.45;;;7.68;;
79047;SDS011;68680;50.764;6.120;2024-03-06T06:33:44;13.05;;;6.97;;
79047;SDS011;68680;50.764;6.120;2024-03-06T06:36:11;14.95;;;8.27;;
79047;SDS011;68680;50.764;6.120;2024-03-06T06:38:37;13.40;;;6.90;;
79047;SDS011;68680;50.764;6.120;2024-03-06T06:41:02;17.33;;;7.57;;
79047;SDS011;68680;50.764;6.120;2024-03-06T06:43:28;20.08;;;7.60;;
79047;SDS011;68680;50.764;6.120;2024-03-06T06:45:54;14.50;;;7.60;;
79047;SDS011;68680;50.764;6.120;2024-03-06T06:48:20;13.27;;;8.15;;
79047;SDS011;68680;50.764;6.120;2024-03-06T06:50:46;19.20;;;7.60;;
79047;SDS011;68680;50.764;6.120;2024-03-06T06:53:13;16.52;;;8.35;;
79047;SDS011;68680;50.764;6.120;2024-03-06T06:55:39;15.20;;;7.93;;
79047;SDS011;68680;50.764;6.120;2024-03-06T06:58:04;15.38;;;8.10;;
79047;SDS011;68680;50.764;6.120;2024-03-06T07:00:30;16.45;;;7.28;;
79047;SDS011;68680;50.764;6.120;2024-03-06T07:02:56;13.65;;;7.60;;
79047;SDS011;68680;50.764;6.120;2024-03-06T07:05:22;16.10;;;7.60;;
79047;SDS011;68680;50.764;6.120;2024-03-06T07:07:47;15.32;;;6.95;;
79047;SDS011;68680;50.764;6.120;2024-03-06T07:10:14;14.88;;;7.32;;
79047;SDS011;68680;50.764;6.120;2024-03-06T07:12:40;18.13;;;7.57;;
79047;SDS011;68680;50.764;6.120;2024-03-06T07:15:06;26.70;;;10.05;;
79047;SDS011;68680;50.764;6.120;2024-03-06T07:17:32;14.27;;;7.25;;
79047;SDS011;68680;50.764;6.120;2024-03-06T07:19:58;16.27;;;7.43;;
79047;SDS011;68680;50.764;6.120;2024-03-06T07:22:24;16.55;;;7.97;;
79047;SDS011;68680;50.764;6.120;2024-03-06T07:24:50;15.98;;;7.30;;
79047;SDS011;68680;50.764;6.120;2024-03-06T07:27:17;13.15;;;6.68;;
79047;SDS011;68680;50.764;6.120;2024-03-06T07:29:43;12.50;;;7.32;;
79047;SDS011;68680;50.764;6.120;2024-03-06T07:32:09;14.93;;;7.38;;
79047;SDS011;68680;50.764;6.120;2024-03-06T07:34:34;16.02;;;7.15;;
79047;SDS011;68680;50.764;6.120;2024-03-06T07:37:00;13.73;;;6.57;;
79047;SDS011;68680;50.764;6.120;2024-03-06T07:39:26;14.88;;;7.22;;
79047;SDS011;68680;50.764;6.120;2024-03-06T07:41:52;16.48;;;6.85;;
79047;SDS011;68680;50.764;6.120;2024-03-06T07:44:19;12.32;;;6.82;;
79047;SDS011;68680;50.764;6.120;2024-03-06T07:46:45;12.60;;;6.20;;
79047;SDS011;68680;50.764;6.120;2024-03-06T07:49:11;11.02;;;6.82;;
79047;SDS011;68680;50.764;6.120;2024-03-06T07:51:37;11.50;;;6.22;;
79047;SDS011;68680;50.764;6.120;2024-03-06T07:54:03;10.88;;;6.40;;
79047;SDS011;68680;50.764;6.120;2024-03-06T07:56:29;13.07;;;6.22;;
79047;SDS011;68680;50.764;6.120;2024-03-06T07:58:55;12.50;;;7.07;;
79047;SDS011;68680;50.764;6.120;2024-03-06T08:01:22;10.90;;;6.40;;
79047;SDS011;68680;50.764;6.120;2024-03-06T08:03:49;8.38;;;5.90;;
79047;SDS011;68680;50.764;6.120;2024-03-06T08:06:15;14.38;;;6.28;;
79047;SDS011;68680;50.764;6.120;2024-03-06T08:08:41;10.80;;;5.82;;
79047;SDS011;68680;50.764;6.120;2024-03-06T08:11:08;9.35;;;6.35;;
79047;SDS011;68680;50.764;6.120;2024-03-06T08:13:33;9.25;;;6.03;;
79047;SDS011;68680;50.764;6.120;2024-03-06T08:15:59;9.90;;;5.68;;
79047;SDS011;68680;50.764;6.120;2024-03-06T08:18:26;8.35;;;6.03;;
79047;SDS011;68680;50.764;6.120;2024-03-06T08:20:52;6.97;;;5.25;;
79047;SDS011;68680;50.764;6.120;2024-03-06T08:23:18;10.20;;;5.90;;
79047;SDS011;68680;50.764;6.120;2024-03-06T08:25:43;8.40;;;5.68;;
79047;SDS011;68680;50.764;6.120;2024-03-06T08:28:09;8.88;;;6.07;;
79047;SDS011;68680;50.764;6.120;2024-03-06T08:30:35;7.72;;;5.78;;
79047;SDS011;68680;50.764;6.120;2024-03-06T08:33:01;9.75;;;5.80;;
79047;SDS011;68680;50.764;6.120;2024-03-06T08:35:28;8.60;;;5.85;;
79047;SDS011;68680;50.764;6.120;2024-03-06T08:37:54;13.55;;;6.03;;
79047;SDS011;68680;50.764;6.120;2024-03-06T08:40:20;6.88;;;5.18;;
79047;SDS011;68680;50.764;6.120;2024-03-06T08:42:46;8.93;;;5.47;;
79047;SDS011;68680;50.764;6.120;2024-03-06T08:45:12;7.85;;;5.10;;
79047;SDS011;68680;50.764;6.120;2024-03-06T08:47:38;9.57;;;5.10;;
79047;SDS011;68680;50.764;6.120;2024-03-06T08:50:04;9.40;;;4.60;;
79047;SDS011;68680;50.764;6.120;2024-03-06T08:52:32;9.50;;;4.63;;
79047;SDS011;68680;50.764;6.120;2024-03-06T08:54:58;9.57;;;4.35;;
79047;SDS011;68680;50.764;6.120;2024-03-06T08:57:24;7.43;;;4.30;;
79047;SDS011;68680;50.764;6.120;2024-03-06T08:59:49;8.90;;;3.97;;
79047;SDS011;68680;50.764;6.120;2024-03-06T09:02:18;7.50;;;3.97;;
79047;SDS011;68680;50.764;6.120;2024-03-06T09:04:45;7.25;;;4.10;;
79047;SDS011;68680;50.764;6.120;2024-03-06T09:07:11;5.15;;;4.25;;
79047;SDS011;68680;50.764;6.120;2024-03-06T09:09:40;7.00;;;3.95;;
79047;SDS011;68680;50.764;6.120;2024-03-06T09:12:06;7.78;;;3.70;;
79047;SDS011;68680;50.764;6.120;2024-03-06T09:14:34;7.05;;;3.85;;
79047;SDS011;68680;50.764;6.120;2024-03-06T09:17:01;6.32;;;3.90;;
79047;SDS011;68680;50.764;6.120;2024-03-06T09:19:27;4.80;;;3.65;;
79047;SDS011;68680;50.764;6.120;2024-03-06T09:21:53;9.95;;;3.90;;
79047;SDS011;68680;50.764;6.120;2024-03-06T09:24:19;7.32;;;4.43;;
79047;SDS011;68680;50.764;6.120;2024-03-06T09:26:48;6.60;;;3.92;;
79047;SDS011;68680;50.764;6.120;2024-03-06T09:29:14;5.90;;;4.13;;
79047;SDS011;68680;50.764;6.120;2024-03-06T09:31:40;6.45;;;3.60;;
79047;SDS011;68680;50.764;6.120;2024-03-06T09:34:07;5.88;;;3.92;;
79047;SDS011;68680;50.764;6.120;2024-03-06T09:36:33;9.48;;;3.95;;
79047;SDS011;68680;50.764;6.120;2024-03-06T09:38:59;6.15;;;3.95;;
79047;SDS011;68680;50.764;6.120;2024-03-06T09:41:24;5.32;;;3.88;;
79047;SDS011;68680;50.764;6.120;2024-03-06T09:43:52;7.68;;;5.00;;
79047;SDS011;68680;50.764;6.120;2024-03-06T09:46:17;6.70;;;3.97;;
79047;SDS011;68680;50.764;6.120;2024-03-06T09:48:45;4.82;;;4.30;;
79047;SDS011;68680;50.764;6.120;2024-03-06T09:51:14;8.48;;;3.88;;
79047;SDS011;68680;50.764;6.120;2024-03-06T09:53:41;7.55;;;3.72;;
79047;SDS011;68680;50.764;6.120;2024-03-06T09:56:07;9.25;;;4.68;;
79047;SDS011;68680;50.764;6.120;2024-03-06T09:58:33;7.55;;;4.30;;
79047;SDS011;68680;50.764;6.120;2024-03-06T10:01:01;5.18;;;4.03;;
79047;SDS011;68680;50.764;6.120;2024-03-06T10:03:30;5.30;;;3.83;;
79047;SDS011;68680;50.764;6.120;2024-03-06T10:05:55;7.38;;;3.63;;
79047;SDS011;68680;50.764;6.120;2024-03-06T10:08:21;8.77;;;4.45;;
79047;SDS011;68680;50.764;6.120;2024-03-06T10:10:47;7.63;;;3.38;;
79047;SDS011;68680;50.764;6.120;2024-03-06T10:13:15;6.60;;;3.92;;
79047;SDS011;68680;50.764;6.120;2024-03-06T10:15:42;8.73;;;4.07;;
79047;SDS011;68680;50.764;6.120;2024-03-06T10:18:12;4.57;;;3.88;;
79047;SDS011;68680;50.764;6.120;2024-03-06T10:20:40;6.38;;;4.10;;
79047;SDS011;68680;50.764;6.120;2024-03-06T10:23:06;7.13;;;4.05;;
79047;SDS011;68680;50.764;6.120;2024-03-06T10:25:32;6.43;;;3.70;;
79047;SDS011;68680;50.764;6.120;2024-03-06T10:28:04;4.95;;;3.88;;
79047;SDS011;68680;50.764;6.120;2024-03-06T10:30:32;4.05;;;3.60;;
79047;SDS011;68680;50.764;6.120;2024-03-06T10:32:58;4.20;;;3.50;;
79047;SDS011;68680;50.764;6.120;2024-03-06T10:35:25;5.70;;;3.35;;
79047;SDS011;68680;50.764;6.120;2024-03-06T10:37:51;3.28;;;2.78;;
79047;SDS011;68680;50.764;6.120;2024-03-06T10:40:19;4.63;;;3.40;;
79047;SDS011;68680;50.764;6.120;2024-03-06T10:42:47;4.30;;;3.35;;
79047;SDS011;68680;50.764;6.120;2024-03-06T10:45:14;6.18;;;2.95;;
79047;SDS011;68680;50.764;6.120;2024-03-06T10:47:44;5.25;;;3.58;;
79047;SDS011;68680;50.764;6.120;2024-03-06T10:50:11;4.03;;;3.58;;
79047;SDS011;68680;50.764;6.120;2024-03-06T10:52:41;4.97;;;3.67;;
79047;SDS011;68680;50.764;6.120;2024-03-06T10:55:09;8.25;;;3.20;;
79047;SDS011;68680;50.764;6.120;2024-03-06T10:57:37;10.35;;;4.57;;
79047;SDS011;68680;50.764;6.120;2024-03-06T11:00:07;6.20;;;3.42;;
79047;SDS011;68680;50.764;6.120;2024-03-06T11:02:34;4.55;;;3.60;;
79047;SDS011;68680;50.764;6.120;2024-03-06T11:05:02;4.03;;;3.15;;
79047;SDS011;68680;50.764;6.120;2024-03-06T11:07:29;4.97;;;3.50;;
79047;SDS011;68680;50.764;6.120;2024-03-06T11:09:57;11.43;;;4.68;;
79047;SDS011;68680;50.764;6.120;2024-03-06T11:12:33;6.55;;;3.03;;
79047;SDS011;68680;50.764;6.120;2024-03-06T11:15:07;4.70;;;3.53;;
79047;SDS011;68680;50.764;6.120;2024-03-06T11:17:34;4.78;;;3.63;;
79047;SDS011;68680;50.764;6.120;2024-03-06T11:23:04;4.85;;;3.95;;
79047;SDS011;68680;50.764;6.120;2024-03-06T11:28:30;6.43;;;3.95;;
79047;SDS011;68680;50.764;6.120;2024-03-06T11:30:58;7.28;;;3.55;;
79047;SDS011;68680;50.764;6.120;2024-03-06T11:33:28;5.90;;;3.70;;
79047;SDS011;68680;50.764;6.120;2024-03-06T11:38:55;7.13;;;4.07;;
79047;SDS011;68680;50.764;6.120;2024-03-06T11:41:24;5.68;;;3.80;;
79047;SDS011;68680;50.764;6.120;2024-03-06T11:43:52;5.80;;;3.67;;
79047;SDS011;68680;50.764;6.120;2024-03-06T11:46:19;6.05;;;3.92;;
79047;SDS011;68680;50.764;6.120;2024-03-06T11:48:52;7.78;;;3.85;;
79047;SDS011;68680;50.764;6.120;2024-03-06T11:51:19;5.43;;;4.45;;
79047;SDS011;68680;50.764;6.120;2024-03-06T11:53:48;5.93;;;3.90;;
79047;SDS011;68680;50.764;6.120;2024-03-06T11:56:15;4.18;;;3.40;;
79047;SDS011;68680;50.764;6.120;2024-03-06T11:58:43;7.28;;;4.10;;
79047;SDS011;68680;50.764;6.120;2024-03-06T12:01:10;7.13;;;4.03;;
79047;SDS011;68680;50.764;6.120;2024-03-06T12:03:35;6.05;;;3.30;;
79047;SDS011;68680;50.764;6.120;2024-03-06T12:06:02;4.30;;;3.55;;
79047;SDS011;68680;50.764;6.120;2024-03-06T12:08:28;6.93;;;3.58;;
79047;SDS011;68680;50.764;6.120;2024-03-06T12:10:54;5.40;;;3.50;;
79047;SDS011;68680;50.764;6.120;2024-03-06T12:13:20;5.32;;;3.47;;
79047;SDS011;68680;50.764;6.120;2024-03-06T12:15:47;8.48;;;3.58;;
79047;SDS011;68680;50.764;6.120;2024-03-06T12:18:13;5.15;;;3.50;;
79047;SDS011;68680;50.764;6.120;2024-03-06T12:20:41;6.28;;;3.38;;
79047;SDS011;68680;50.764;6.120;2024-03-06T12:23:07;4.72;;;3.03;;
79047;SDS011;68680;50.764;6.120;2024-03-06T12:25:33;5.97;;;3.17;;
79047;SDS011;68680;50.764;6.120;2024-03-06T12:28:06;6.28;;;3.83;;
79047;SDS011;68680;50.764;6.120;2024-03-06T12:30:38;3.90;;;2.95;;
79047;SDS011;68680;50.764;6.120;2024-03-06T12:33:08;4.25;;;3.38;;
79047;SDS011;68680;50.764;6.120;2024-03-06T12:35:34;6.00;;;3.90;;
79047;SDS011;68680;50.764;6.120;2024-03-06T12:38:11;8.07;;;4.50;;
79047;SDS011;68680;50.764;6.120;2024-03-06T12:40:37;4.85;;;3.95;;
79047;SDS011;68680;50.764;6.120;2024-03-06T12:43:03;4.22;;;3.78;;
79047;SDS011;68680;50.764;6.120;2024-03-06T12:45:28;4.28;;;3.78;;
79047;SDS011;68680;50.764;6.120;2024-03-06T12:47:54;5.03;;;3.95;;
79047;SDS011;68680;50.764;6.120;2024-03-06T12:50:21;5.38;;;3.35;;
79047;SDS011;68680;50.764;6.120;2024-03-06T12:52:47;7.63;;;3.58;;
79047;SDS011;68680;50.764;6.120;2024-03-06T12:55:13;7.85;;;3.50;;
79047;SDS011;68680;50.764;6.120;2024-03-06T12:57:39;7.03;;;4.03;;
79047;SDS011;68680;50.764;6.120;2024-03-06T13:00:05;7.93;;;5.82;;
79047;SDS011;68680;50.764;6.120;2024-03-06T13:02:32;7.47;;;4.05;;
79047;SDS011;68680;50.764;6.120;2024-03-06T13:04:58;7.90;;;4.15;;
79047;SDS011;68680;50.764;6.120;2024-03-06T13:07:25;7.15;;;4.13;;
79047;SDS011;68680;50.764;6.120;2024-03-06T13:09:51;6.53;;;4.00;;
79047;SDS011;68680;50.764;6.120;2024-03-06T13:12:16;6.03;;;3.80;;
79047;SDS011;68680;50.764;6.120;2024-03-06T13:14:42;6.63;;;3.97;;
79047;SDS011;68680;50.764;6.120;2024-03-06T13:17:08;7.40;;;3.83;;
79047;SDS011;68680;50.764;6.120;2024-03-06T13:19:34;4.88;;;3.80;;
79047;SDS011;68680;50.764;6.120;2024-03-06T13:21:59;5.97;;;3.88;;
79047;SDS011;68680;50.764;6.120;2024-03-06T13:24:26;3.63;;;3.33;;
79047;SDS011;68680;50.764;6.120;2024-03-06T13:26:52;5.85;;;3.80;;
79047;SDS011;68680;50.764;6.120;2024-03-06T13:29:18;5.97;;;3.70;;
79047;SDS011;68680;50.764;6.120;2024-03-06T13:31:44;6.00;;;3.75;;
79047;SDS011;68680;50.764;6.120;2024-03-06T13:34:09;5.40;;;3.72;;
79047;SDS011;68680;50.764;6.120;2024-03-06T13:36:35;8.23;;;3.80;;
79047;SDS011;68680;50.764;6.120;2024-03-06T13:39:01;5.72;;;3.75;;
79047;SDS011;68680;50.764;6.120;2024-03-06T13:41:28;7.13;;;4.10;;
79047;SDS011;68680;50.764;6.120;2024-03-06T13:43:54;6.35;;;4.38;;
79047;SDS011;68680;50.764;6.120;2024-03-06T13:46:20;6.25;;;4.00;;
79047;SDS011;68680;50.764;6.120;2024-03-06T13:48:46;6.85;;;3.85;;
79047;SDS011;68680;50.764;6.120;2024-03-06T13:51:11;4.97;;;4.10;;
79047;SDS011;68680;50.764;6.120;2024-03-06T13:53:37;5.15;;;4.40;;
79047;SDS011;68680;50.764;6.120;2024-03-06T13:56:03;5.20;;;3.45;;
79047;SDS011;68680;50.764;6.120;2024-03-06T13:58:30;6.05;;;3.40;;
79047;SDS011;68680;50.764;6.120;2024-03-06T14:00:56;4.25;;;3.80;;
79047;SDS011;68680;50.764;6.120;2024-03-06T14:03:22;3.75;;;3.45;;
79047;SDS011;68680;50.764;6.120;2024-03-06T14:05:48;4.75;;;3.53;;
79047;SDS011;68680;50.764;6.120;2024-03-06T14:08:14;5.28;;;3.08;;
79047;SDS011;68680;50.764;6.120;2024-03-06T14:10:39;4.25;;;3.88;;
79047;SDS011;68680;50.764;6.120;2024-03-06T14:13:05;6.45;;;3.00;;
79047;SDS011;68680;50.764;6.120;2024-03-06T14:15:32;4.22;;;3.55;;
79047;SDS011;68680;50.764;6.120;2024-03-06T14:17:58;7.28;;;3.83;;
79047;SDS011;68680;50.764;6.120;2024-03-06T14:20:24;7.30;;;3.70;;
79047;SDS011;68680;50.764;6.120;2024-03-06T14:22:50;4.63;;;4.22;;
79047;SDS011;68680;50.764;6.120;2024-03-06T14:25:15;5.70;;;4.40;;
79047;SDS011;68680;50.764;6.120;2024-03-06T14:27:41;7.00;;;4.88;;
79047;SDS011;68680;50.764;6.120;2024-03-06T14:30:07;7.13;;;4.18;;
79047;SDS011;68680;50.764;6.120;2024-03-06T14:32:35;6.22;;;4.13;;
79047;SDS011;68680;50.764;6.120;2024-03-06T14:35:01;7.25;;;3.83;;
79047;SDS011;68680;50.764;6.120;2024-03-06T14:37:27;6.70;;;3.63;;
79047;SDS011;68680;50.764;6.120;2024-03-06T14:39:52;4.53;;;3.55;;
79047;SDS011;68680;50.764;6.120;2024-03-06T14:42:18;5.35;;;3.65;;
79047;SDS011;68680;50.764;6.120;2024-03-06T14:44:44;9.70;;;4.20;;
79047;SDS011;68680;50.764;6.120;2024-03-06T14:47:10;4.68;;;3.70;;
79047;SDS011;68680;50.764;6.120;2024-03-06T14:49:37;4.63;;;3.80;;